createdAt,value
2018-06-02T00:02:11.530Z,7.95
2018-06-02T00:04:39.928Z,7.43
2018-06-02T00:07:07.422Z,7.53
2018-06-02T00:09:35.667Z,7.85
2018-06-02T00:12:03.144Z,7.97
2018-06-02T00:14:30.637Z,8.50
2018-06-02T00:16:58.121Z,8.98
2018-06-02T00:19:26.373Z,7.75
2018-06-02T00:21:53.849Z,8.20
2018-06-02T00:24:21.334Z,8.75
2018-06-02T00:26:48.805Z,9.07
2018-06-02T00:29:16.340Z,8.85
2018-06-02T00:31:43.818Z,9.05
2018-06-02T00:34:11.396Z,9.43
2018-06-02T00:36:39.065Z,9.73
2018-06-02T00:39:06.624Z,9.20
2018-06-02T00:41:34.199Z,9.18
2018-06-02T00:44:01.788Z,9.68
2018-06-02T00:46:29.344Z,10.20
2018-06-02T00:48:56.833Z,9.52
2018-06-02T00:51:24.308Z,10.57
2018-06-02T00:53:51.791Z,9.98
2018-06-02T00:56:19.345Z,10.02
2018-06-02T00:58:46.848Z,10.50
2018-06-02T01:01:15.100Z,10.35
2018-06-02T01:03:42.672Z,10.50
2018-06-02T01:06:10.154Z,9.77
2018-06-02T01:08:37.692Z,10.13
2018-06-02T01:11:05.178Z,10.38
2018-06-02T01:13:32.657Z,10.65
2018-06-02T01:16:00.142Z,9.80
2018-06-02T01:18:27.623Z,10.07
2018-06-02T01:20:55.223Z,10.60
2018-06-02T01:23:22.637Z,9.73
2018-06-02T01:25:50.125Z,10.18
2018-06-02T01:28:17.643Z,10.05
2018-06-02T01:30:45.125Z,10.07
2018-06-02T01:33:12.709Z,9.65
2018-06-02T01:35:40.724Z,9.50
2018-06-02T01:38:08.271Z,9.52
2018-06-02T01:40:35.745Z,9.43
2018-06-02T01:43:03.240Z,9.68
2018-06-02T01:45:31.501Z,10.53
2018-06-02T01:47:58.972Z,9.57
2018-06-02T01:50:26.461Z,9.25
2018-06-02T01:52:53.944Z,9.63
2018-06-02T01:55:21.432Z,8.77
2018-06-02T01:57:49.764Z,9.07
2018-06-02T02:00:17.250Z,9.93
2018-06-02T02:02:44.740Z,9.17
2018-06-02T02:05:12.230Z,9.37
2018-06-02T02:07:40.476Z,9.45
2018-06-02T02:10:07.949Z,8.70
2018-06-02T02:12:35.435Z,8.65
2018-06-02T02:15:02.978Z,8.73
2018-06-02T02:17:30.481Z,9.00
2018-06-02T02:19:57.958Z,8.82
2018-06-02T02:22:25.432Z,9.23
2018-06-02T02:24:53.687Z,9.35
2018-06-02T02:27:21.182Z,8.82
2018-06-02T02:29:48.722Z,9.43
2018-06-02T02:32:16.202Z,8.57
2018-06-02T02:34:43.696Z,8.82
2018-06-02T02:37:11.248Z,9.45
2018-06-02T02:39:38.736Z,8.55
2018-06-02T02:42:06.265Z,9.48
2018-06-02T02:44:33.838Z,9.82
2018-06-02T02:47:01.317Z,9.70
2018-06-02T02:49:28.788Z,9.93
2018-06-02T02:51:56.350Z,10.00
2018-06-02T02:54:23.834Z,9.65
2018-06-02T02:56:51.316Z,10.05
2018-06-02T02:59:18.798Z,9.45
2018-06-02T03:01:46.297Z,8.82
2018-06-02T03:04:13.789Z,9.68
2018-06-02T03:06:41.278Z,9.90
2018-06-02T03:09:08.855Z,9.65
2018-06-02T03:11:36.337Z,9.98
2018-06-02T03:14:03.825Z,10.32
2018-06-02T03:16:31.330Z,10.30
2018-06-02T03:18:58.810Z,10.60
2018-06-02T03:21:26.295Z,10.52
2018-06-02T03:23:53.789Z,9.90
2018-06-02T03:26:21.266Z,10.45
2018-06-02T03:28:48.817Z,10.95
2018-06-02T03:31:16.321Z,11.05
2018-06-02T03:33:43.801Z,10.87
2018-06-02T03:36:12.063Z,10.70
2018-06-02T03:38:39.589Z,12.15
2018-06-02T03:41:07.080Z,12.23
2018-06-02T03:43:34.561Z,12.57
2018-06-02T03:46:02.048Z,13.90
2018-06-02T03:48:29.546Z,14.33
2018-06-02T03:50:57.878Z,14.77
2018-06-02T03:53:25.365Z,15.20
2018-06-02T03:55:52.872Z,14.80
2018-06-02T03:58:21.137Z,15.85
2018-06-02T04:00:48.616Z,15.15
2018-06-02T04:03:16.111Z,15.82
2018-06-02T04:05:44.447Z,16.37
2018-06-02T04:08:12.024Z,16.55
2018-06-02T04:10:39.497Z,15.77
2018-06-02T04:13:07.001Z,17.90
2018-06-02T04:15:35.341Z,16.95
2018-06-02T04:18:02.918Z,16.60
2018-06-02T04:20:30.413Z,16.50
2018-06-02T04:22:57.896Z,16.20
2018-06-02T04:25:25.383Z,17.23
2018-06-02T04:27:53.621Z,16.35
2018-06-02T04:30:26.924Z,16.48
2018-06-02T04:32:54.400Z,16.70
2018-06-02T04:35:21.896Z,16.70
2018-06-02T04:37:49.381Z,17.63
2018-06-02T04:40:17.713Z,18.50
2018-06-02T04:42:45.280Z,17.87
2018-06-02T04:45:12.772Z,18.37
2018-06-02T04:47:40.282Z,18.73
2018-06-02T04:50:07.765Z,18.27
2018-06-02T04:52:36.034Z,20.15
2018-06-02T04:55:03.575Z,21.17
2018-06-02T04:57:31.063Z,20.13
2018-06-02T04:59:58.615Z,21.62
2018-06-02T05:02:26.188Z,21.20
2018-06-02T05:04:53.681Z,21.87
2018-06-02T05:07:21.166Z,21.80
2018-06-02T05:09:48.664Z,23.00
2018-06-02T05:12:16.934Z,22.53
2018-06-02T05:14:44.441Z,21.90
2018-06-02T05:17:11.979Z,23.62
2018-06-02T05:19:39.633Z,22.77
2018-06-02T05:22:07.117Z,23.10
2018-06-02T05:24:34.654Z,23.25
2018-06-02T05:27:02.217Z,22.13
2018-06-02T05:29:29.815Z,23.23
2018-06-02T05:31:57.301Z,23.80
2018-06-02T05:34:24.815Z,23.30
2018-06-02T05:36:52.300Z,22.37
2018-06-02T05:39:19.883Z,22.83
2018-06-02T05:41:47.396Z,22.05
2018-06-02T05:44:15.681Z,22.50
2018-06-02T05:46:43.222Z,22.00
2018-06-02T05:49:10.799Z,22.90
2018-06-02T05:51:38.307Z,22.33
2018-06-02T05:54:06.642Z,21.62
2018-06-02T05:56:34.208Z,22.27
2018-06-02T05:59:01.893Z,23.15
2018-06-02T06:01:29.395Z,21.23
2018-06-02T06:03:56.870Z,21.95
2018-06-02T06:06:24.405Z,21.80
2018-06-02T06:08:51.893Z,22.48
2018-06-02T06:11:19.439Z,22.50
2018-06-02T06:13:47.095Z,21.10
2018-06-02T06:16:14.581Z,21.08
2018-06-02T06:18:42.092Z,21.40
2018-06-02T06:21:09.585Z,21.40
2018-06-02T06:23:37.929Z,20.83
2018-06-02T06:26:05.416Z,20.45
2018-06-02T06:28:32.960Z,20.30
2018-06-02T06:31:00.442Z,19.73
2018-06-02T06:33:27.945Z,20.05
2018-06-02T06:35:56.288Z,20.70
2018-06-02T06:38:23.911Z,18.60
2018-06-02T06:40:51.568Z,18.93
2018-06-02T06:43:19.153Z,18.35
2018-06-02T06:45:46.690Z,18.07
2018-06-02T06:48:14.175Z,16.70
2018-06-02T06:50:41.715Z,16.15
2018-06-02T06:53:09.955Z,14.73
2018-06-02T06:55:37.485Z,15.03
2018-06-02T06:58:04.984Z,15.27
2018-06-02T07:00:32.537Z,13.57
2018-06-02T07:03:00.100Z,13.53
2018-06-02T07:05:27.884Z,12.77
2018-06-02T07:07:55.380Z,13.02
2018-06-02T07:10:23.001Z,12.97
2018-06-02T07:12:51.239Z,12.83
2018-06-02T07:15:18.788Z,11.60
2018-06-02T07:17:46.458Z,12.53
2018-06-02T07:20:14.065Z,11.90
2018-06-02T07:22:41.651Z,11.25
2018-06-02T07:25:09.298Z,10.97
2018-06-02T07:27:37.647Z,11.20
2018-06-02T07:30:05.141Z,10.23
2018-06-02T07:32:32.642Z,10.77
2018-06-02T07:35:00.140Z,10.13
2018-06-02T07:37:28.471Z,9.80
2018-06-02T07:39:56.130Z,10.27
2018-06-02T07:42:23.682Z,9.85
2018-06-02T07:44:51.182Z,8.97
2018-06-02T07:47:18.788Z,8.67
2018-06-02T07:49:46.379Z,9.57
2018-06-02T07:52:13.926Z,8.57
2018-06-02T07:54:41.482Z,8.23
2018-06-02T07:57:09.509Z,7.70
2018-06-02T07:59:36.984Z,8.37
2018-06-02T08:02:05.334Z,8.13
2018-06-02T08:04:32.895Z,8.10
2018-06-02T08:07:00.611Z,7.80
2018-06-02T08:09:28.082Z,7.53
2018-06-02T08:11:55.573Z,7.53
2018-06-02T08:14:23.112Z,8.03
2018-06-02T08:16:50.635Z,7.40
2018-06-02T08:19:18.170Z,7.53
2018-06-02T08:21:46.548Z,7.30
2018-06-02T08:24:14.136Z,7.28
2018-06-02T08:26:41.688Z,7.73
2018-06-02T08:29:09.374Z,7.57
2018-06-02T08:31:36.958Z,7.10
2018-06-02T08:34:04.475Z,7.60
2018-06-02T08:36:31.960Z,15.70
2018-06-02T08:38:59.533Z,18.50
2018-06-02T08:41:26.997Z,21.02
2018-06-02T08:43:54.486Z,24.15
2018-06-02T08:46:22.074Z,23.17
2018-06-02T08:48:49.548Z,20.20
2018-06-02T08:51:17.800Z,20.07
2018-06-02T08:53:45.274Z,20.67
2018-06-02T08:56:12.851Z,19.50
2018-06-02T08:58:40.336Z,18.53
2018-06-02T09:01:07.850Z,17.33
2018-06-02T09:03:36.164Z,17.50
2018-06-02T09:06:03.645Z,15.80
2018-06-02T09:08:31.209Z,18.23
2018-06-02T09:10:58.688Z,16.27
2018-06-02T09:13:26.205Z,16.23
2018-06-02T09:15:53.718Z,15.00
2018-06-02T09:18:21.209Z,14.37
2018-06-02T09:20:48.740Z,14.20
2018-06-02T09:23:16.240Z,14.13
2018-06-02T09:25:43.826Z,13.87
2018-06-02T09:28:11.396Z,13.63
2018-06-02T09:30:38.990Z,13.70
2018-06-02T09:33:06.496Z,13.70
2018-06-02T09:35:34.897Z,13.37
2018-06-02T09:38:02.393Z,12.93
2018-06-02T09:40:30.044Z,12.60
2018-06-02T09:42:57.581Z,13.67
2018-06-02T09:45:25.837Z,11.63
2018-06-02T09:47:53.702Z,13.13
2018-06-02T09:50:21.242Z,11.90
2018-06-02T09:52:48.937Z,11.37
2018-06-02T09:55:17.453Z,11.20
2018-06-02T09:57:45.055Z,10.70
2018-06-02T10:00:12.795Z,10.53
2018-06-02T10:02:40.501Z,10.50
2018-06-02T10:05:08.023Z,11.90
2018-06-02T10:07:35.605Z,12.70
2018-06-02T10:10:03.169Z,12.43
2018-06-02T10:12:30.789Z,12.97
2018-06-02T10:14:58.320Z,13.57
2018-06-02T10:17:25.943Z,13.37
2018-06-02T10:19:54.297Z,13.57
2018-06-02T10:22:21.857Z,13.90
2018-06-02T10:24:49.353Z,14.30
2018-06-02T10:27:16.956Z,13.37
2018-06-02T10:29:45.273Z,13.90
2018-06-02T10:32:12.790Z,13.03
2018-06-02T10:34:40.361Z,12.63
2018-06-02T10:37:10.136Z,11.10
2018-06-02T10:39:37.741Z,10.30
2018-06-02T10:42:05.242Z,10.00
2018-06-02T10:44:32.787Z,9.37
2018-06-02T10:47:01.292Z,9.73
2018-06-02T10:49:28.814Z,9.07
2018-06-02T10:51:56.393Z,9.03
2018-06-02T10:54:23.870Z,8.13
2018-06-02T10:56:51.416Z,7.62
2018-06-02T10:59:19.774Z,7.70
2018-06-02T11:01:47.498Z,7.07
2018-06-02T11:04:16.506Z,6.93
2018-06-02T11:06:44.123Z,7.43
2018-06-02T11:09:11.786Z,6.93
2018-06-02T11:11:39.323Z,6.90
2018-06-02T11:14:06.797Z,6.70
2018-06-02T11:16:34.300Z,6.82
2018-06-02T11:19:01.884Z,6.95
2018-06-02T11:21:29.429Z,6.77
2018-06-02T11:23:57.049Z,6.95
2018-06-02T11:26:24.760Z,7.50
2018-06-02T11:28:53.133Z,6.50
2018-06-02T11:31:21.387Z,7.17
2018-06-02T11:33:48.929Z,6.65
2018-06-02T11:36:16.490Z,6.60
2018-06-02T11:38:44.189Z,6.87
2018-06-02T11:41:11.868Z,7.77
2018-06-02T11:43:39.407Z,8.70
2018-06-02T11:46:07.660Z,8.20
2018-06-02T11:48:35.134Z,9.37
2018-06-02T11:51:03.556Z,8.30
2018-06-02T11:53:31.797Z,9.07
2018-06-02T11:55:59.288Z,9.70
2018-06-02T11:58:27.573Z,10.43
2018-06-02T12:00:55.104Z,10.82
2018-06-02T12:03:22.647Z,11.93
2018-06-02T12:05:50.960Z,11.10
2018-06-02T12:08:18.528Z,10.53
2018-06-02T12:10:46.091Z,10.13
2018-06-02T12:13:13.694Z,11.73
2018-06-02T12:15:41.227Z,12.20
2018-06-02T12:18:08.713Z,11.20
2018-06-02T12:20:36.228Z,10.93
2018-06-02T12:23:03.669Z,9.95
2018-06-02T12:25:31.152Z,9.13
2018-06-02T12:27:58.648Z,9.27
2018-06-02T12:30:27.069Z,9.53
2018-06-02T12:32:55.462Z,9.82
2018-06-02T12:35:23.706Z,9.60
2018-06-02T12:37:51.238Z,9.43
2018-06-02T12:40:18.822Z,9.25
2018-06-02T12:42:46.421Z,10.00
2018-06-02T12:45:13.914Z,9.23
2018-06-02T12:47:42.195Z,8.87
2018-06-02T12:50:09.643Z,9.68
2018-06-02T12:52:37.131Z,9.40
2018-06-02T12:55:04.626Z,9.90
2018-06-02T12:57:32.944Z,10.63
2018-06-02T13:00:00.520Z,11.90
2018-06-02T13:02:28.093Z,12.43
2018-06-02T13:04:55.589Z,11.70
2018-06-02T13:07:23.092Z,11.53
2018-06-02T13:09:50.687Z,11.75
2018-06-02T13:12:19.704Z,12.40
2018-06-02T13:14:47.293Z,11.80
2018-06-02T13:17:14.876Z,13.07
2018-06-02T13:19:42.379Z,13.03
2018-06-02T13:22:10.055Z,13.87
2018-06-02T13:24:37.556Z,12.83
2018-06-02T13:27:05.029Z,12.83
2018-06-02T13:29:32.514Z,13.03
2018-06-02T13:32:00.013Z,15.10
2018-06-02T13:34:27.534Z,14.60
2018-06-02T13:36:55.029Z,14.13
2018-06-02T13:39:22.512Z,13.77
2018-06-02T13:41:49.999Z,13.87
2018-06-02T13:44:17.525Z,14.00
2018-06-02T13:46:45.044Z,14.30
2018-06-02T13:49:12.546Z,14.95
2018-06-02T13:51:40.131Z,15.70
2018-06-02T13:54:08.376Z,17.03
2018-06-02T13:56:35.857Z,15.57
2018-06-02T13:59:03.396Z,18.00
2018-06-02T14:01:30.876Z,17.47
2018-06-02T14:03:58.391Z,17.20
2018-06-02T14:06:26.816Z,18.27
2018-06-02T14:08:54.385Z,20.40
2018-06-02T14:11:21.963Z,19.97
2018-06-02T14:13:49.545Z,20.87
2018-06-02T14:16:17.037Z,19.10
2018-06-02T14:18:44.775Z,18.90
2018-06-02T14:21:12.233Z,24.47
2018-06-02T14:23:39.717Z,22.43
2018-06-02T14:26:07.267Z,19.70
2018-06-02T14:28:35.505Z,18.93
2018-06-02T14:31:03.000Z,19.83
2018-06-02T14:33:30.546Z,19.52
2018-06-02T14:35:58.097Z,20.47
2018-06-02T14:38:25.590Z,20.73
2018-06-02T14:40:53.873Z,21.42
2018-06-02T14:43:21.365Z,22.67
2018-06-02T14:45:48.848Z,23.20
2018-06-02T14:48:17.123Z,24.50
2018-06-02T14:50:44.603Z,24.92
2018-06-02T14:53:12.851Z,25.45
2018-06-02T14:55:40.413Z,24.40
2018-06-02T14:58:08.009Z,23.80
2018-06-02T15:00:35.499Z,22.20
2018-06-02T15:03:03.041Z,24.00
2018-06-02T15:05:30.593Z,22.27
2018-06-02T15:07:58.080Z,21.70
2018-06-02T15:10:25.704Z,22.60
2018-06-02T15:12:54.028Z,21.23
2018-06-02T15:15:21.504Z,22.27
2018-06-02T15:17:49.003Z,22.50
2018-06-02T15:20:16.521Z,21.85
2018-06-02T15:22:44.829Z,21.40
2018-06-02T15:25:12.498Z,23.25
2018-06-02T15:27:39.969Z,22.42
2018-06-02T15:30:07.528Z,22.73
2018-06-02T15:32:35.856Z,22.02
2018-06-02T15:35:03.350Z,21.33
2018-06-02T15:37:30.895Z,22.57
2018-06-02T15:39:58.385Z,21.42
2018-06-02T15:42:27.380Z,22.92
2018-06-02T15:44:54.889Z,24.50
2018-06-02T15:47:23.141Z,22.53
2018-06-02T15:49:52.132Z,22.05
2018-06-02T15:52:19.714Z,22.77
2018-06-02T15:54:47.307Z,23.57
2018-06-02T15:57:14.778Z,23.97
2018-06-02T15:59:42.453Z,25.00
2018-06-02T16:02:09.864Z,24.30
2018-06-02T16:04:37.340Z,25.83
2018-06-02T16:07:04.929Z,23.62
2018-06-02T16:09:32.414Z,21.93
2018-06-02T16:11:59.949Z,21.97
2018-06-02T16:14:27.446Z,21.73
2018-06-02T16:16:54.924Z,19.97
2018-06-02T16:19:22.446Z,18.55
2018-06-02T16:21:50.795Z,20.27
2018-06-02T16:24:18.265Z,19.62
2018-06-02T16:26:45.809Z,19.27
2018-06-02T16:29:13.333Z,19.37
2018-06-02T16:31:40.791Z,18.37
2018-06-02T16:34:08.273Z,17.30
2018-06-02T16:36:36.534Z,17.60
2018-06-02T16:39:04.066Z,16.63
2018-06-02T16:41:31.584Z,18.30
2018-06-02T16:43:59.076Z,19.25
2018-06-02T16:46:27.420Z,18.60
2018-06-02T16:48:55.072Z,17.57
2018-06-02T16:51:22.656Z,17.53
2018-06-02T16:53:50.242Z,18.30
2018-06-02T16:56:17.805Z,18.05
2018-06-02T16:58:45.376Z,17.20
2018-06-02T17:01:12.857Z,19.07
2018-06-02T17:03:40.349Z,16.03
2018-06-02T17:06:07.893Z,18.00
2018-06-02T17:08:35.487Z,15.67
2018-06-02T17:11:03.118Z,18.13
2018-06-02T17:13:30.607Z,16.67
2018-06-02T17:15:58.108Z,17.37
2018-06-02T17:18:25.589Z,19.20
2018-06-02T17:20:53.117Z,18.33
2018-06-02T17:23:20.749Z,18.63
2018-06-02T17:25:48.217Z,18.00
2018-06-02T17:28:15.713Z,18.10
2018-06-02T17:30:43.195Z,17.33
2018-06-02T17:33:10.801Z,17.43
2018-06-02T17:35:38.279Z,17.67
2018-06-02T17:38:05.776Z,20.37
2018-06-02T17:40:34.022Z,19.17
2018-06-02T17:43:01.591Z,18.20
2018-06-02T17:45:29.097Z,18.07
2018-06-02T17:47:57.441Z,18.67
2018-06-02T17:50:25.010Z,19.23
2018-06-02T17:52:52.484Z,18.37
2018-06-02T17:55:20.001Z,20.47
2018-06-02T17:57:48.270Z,20.30
2018-06-02T18:00:15.756Z,20.23
2018-06-02T18:02:43.248Z,19.47
2018-06-02T18:05:11.624Z,21.33
2018-06-02T18:07:39.088Z,21.23
2018-06-02T18:10:06.601Z,20.03
2018-06-02T18:12:34.861Z,19.50
2018-06-02T18:15:37.328Z,18.67
2018-06-02T18:18:05.421Z,19.20
2018-06-02T18:20:33.756Z,20.40
2018-06-02T18:23:01.947Z,19.03
2018-06-02T18:25:30.273Z,18.50
2018-06-02T18:27:58.520Z,18.70
2018-06-02T18:30:26.693Z,17.73
2018-06-02T18:32:54.754Z,17.43
2018-06-02T18:35:22.871Z,16.63
2018-06-02T18:37:50.955Z,17.50
2018-06-02T18:40:19.053Z,17.23
2018-06-02T18:42:47.157Z,16.90
2018-06-02T18:45:15.241Z,17.70
2018-06-02T18:47:43.333Z,16.93
2018-06-02T18:50:11.423Z,17.60
2018-06-02T18:52:39.540Z,16.93
2018-06-02T18:55:07.612Z,16.30
2018-06-02T18:57:35.793Z,16.67
2018-06-02T19:00:04.017Z,16.77
2018-06-02T19:02:32.126Z,17.17
2018-06-02T19:05:00.237Z,16.27
2018-06-02T19:07:28.402Z,16.77
2018-06-02T19:09:56.648Z,16.23
2018-06-02T19:12:24.520Z,16.30
2018-06-02T19:14:52.609Z,16.97
2018-06-02T19:17:20.688Z,16.50
2018-06-02T19:19:48.861Z,17.60
2018-06-02T19:22:16.940Z,17.37
2018-06-02T19:24:44.997Z,16.00
2018-06-02T19:27:13.100Z,16.73
2018-06-02T19:29:41.201Z,16.90
2018-06-02T19:32:09.281Z,17.83
2018-06-02T19:34:37.361Z,18.17
2018-06-02T19:37:05.441Z,16.40
2018-06-02T19:39:33.545Z,17.00
2018-06-02T19:42:01.666Z,16.03
2018-06-02T19:44:29.794Z,15.97
2018-06-02T19:46:57.939Z,16.17
2018-06-02T19:49:26.025Z,16.47
2018-06-02T19:51:54.108Z,16.30
2018-06-02T19:54:22.192Z,15.70
2018-06-02T19:56:50.719Z,17.03
2018-06-02T19:59:18.792Z,15.80
2018-06-02T20:01:46.916Z,17.10
2018-06-02T20:04:15.010Z,15.37
2018-06-02T20:06:42.878Z,15.60
2018-06-02T20:09:10.954Z,16.43
2018-06-02T20:11:39.042Z,16.07
2018-06-02T20:14:07.152Z,16.80
2018-06-02T20:16:35.224Z,15.07
2018-06-02T20:19:03.292Z,15.73
2018-06-02T20:21:31.415Z,15.73
2018-06-02T20:23:59.513Z,16.27
2018-06-02T20:26:27.609Z,15.93
2018-06-02T20:28:55.723Z,16.37
2018-06-02T20:31:23.814Z,16.13
2018-06-02T20:33:51.889Z,15.87
2018-06-02T20:36:19.961Z,15.60
2018-06-02T20:38:48.040Z,15.97
2018-06-02T20:41:16.189Z,15.77
2018-06-02T20:43:44.107Z,15.90
2018-06-02T20:46:12.190Z,16.13
2018-06-02T20:48:40.353Z,15.63
2018-06-02T20:51:08.490Z,15.97
2018-06-02T20:53:36.609Z,14.20
2018-06-02T20:56:04.780Z,15.07
2018-06-02T20:58:32.849Z,16.47
2018-06-02T21:01:00.944Z,14.47
2018-06-02T21:03:29.082Z,15.00
2018-06-02T21:05:57.235Z,14.63
2018-06-02T21:08:25.447Z,15.97
2018-06-02T21:10:53.500Z,14.97
2018-06-02T21:13:21.573Z,14.63
2018-06-02T21:15:49.712Z,15.17
2018-06-02T21:18:17.840Z,15.50
2018-06-02T21:20:45.967Z,14.77
2018-06-02T21:23:14.070Z,14.40
2018-06-02T21:25:42.141Z,14.53
2018-06-02T21:28:10.210Z,14.27
2018-06-02T21:30:38.457Z,14.97
2018-06-02T21:33:06.661Z,14.37
2018-06-02T21:35:34.841Z,14.03
2018-06-02T21:38:03.032Z,13.40
2018-06-02T21:40:30.911Z,13.80
2018-06-02T21:42:59.002Z,13.43
2018-06-02T21:45:27.073Z,13.70
2018-06-02T21:47:55.173Z,13.43
2018-06-02T21:50:23.249Z,13.63
2018-06-02T21:52:51.373Z,14.63
2018-06-02T21:55:19.545Z,14.00
2018-06-02T21:57:47.667Z,14.00
2018-06-02T22:00:15.768Z,14.30
2018-06-02T22:02:43.845Z,13.87
2018-06-02T22:05:11.942Z,13.67
2018-06-02T22:07:40.064Z,13.90
2018-06-02T22:10:08.137Z,13.90
2018-06-02T22:12:36.267Z,14.13
2018-06-02T22:15:04.376Z,13.87
2018-06-02T22:17:32.513Z,14.30
2018-06-02T22:20:00.642Z,13.73
2018-06-02T22:22:28.753Z,15.07
2018-06-02T22:24:56.880Z,14.47
2018-06-02T22:27:24.955Z,13.70
2018-06-02T22:29:53.044Z,13.63
2018-06-02T22:32:21.120Z,13.90
2018-06-02T22:34:49.277Z,14.30
2018-06-02T22:37:17.357Z,13.67
2018-06-02T22:39:45.442Z,14.27
2018-06-02T22:42:13.535Z,12.80
2018-06-02T22:44:41.607Z,13.63
2018-06-02T22:47:09.741Z,13.60
2018-06-02T22:49:37.826Z,13.93
2018-06-02T22:52:05.910Z,13.37
2018-06-02T22:54:34.349Z,12.97
2018-06-02T22:57:02.433Z,13.63
2018-06-02T22:59:30.783Z,13.23
2018-06-02T23:01:58.973Z,13.67
2018-06-02T23:04:27.354Z,13.93
2018-06-02T23:06:55.440Z,13.40
2018-06-02T23:09:23.518Z,13.00
2018-06-02T23:11:51.606Z,13.03
2018-06-02T23:14:19.686Z,13.93
2018-06-02T23:16:47.788Z,13.00
2018-06-02T23:19:15.888Z,13.90
2018-06-02T23:21:43.974Z,14.80
2018-06-02T23:24:12.285Z,13.60
2018-06-02T23:26:40.368Z,13.70
2018-06-02T23:29:08.444Z,13.77
2018-06-02T23:31:36.531Z,13.63
2018-06-02T23:34:04.604Z,13.40
2018-06-02T23:36:32.697Z,13.57
2018-06-02T23:39:00.816Z,13.10
2018-06-02T23:41:28.926Z,12.60
2018-06-02T23:43:57.053Z,13.23
2018-06-02T23:46:25.132Z,13.43
2018-06-02T23:48:53.217Z,12.53
2018-06-02T23:51:21.321Z,12.73
2018-06-02T23:53:49.396Z,12.03
2018-06-02T23:56:17.581Z,11.80
2018-06-02T23:58:45.653Z,12.30
